sensor_id;sensor_type;location;lat;lon;timestamp;temperature;humidity
78345;DHT22;67620;51.134;6.548;2024-01-30T00:01:42;6.80;85.00
78345;DHT22;67620;51.134;6.548;2024-01-30T00:04:07;6.80;85.10
78345;DHT22;67620;51.134;6.548;2024-01-30T00:06:33;6.80;85.30
78345;DHT22;67620;51.134;6.548;2024-01-30T00:08:58;6.90;84.80
78345;DHT22;67620;51.134;6.548;2024-01-30T00:11:24;6.90;84.70
78345;DHT22;67620;51.134;6.548;2024-01-30T00:13:53;6.90;84.80
78345;DHT22;67620;51.134;6.548;2024-01-30T00:16:24;6.80;85.40
78345;DHT22;67620;51.134;6.548;2024-01-30T00:18:50;6.80;85.40
78345;DHT22;67620;51.134;6.548;2024-01-30T00:21:16;6.80;85.20
78345;DHT22;67620;51.134;6.548;2024-01-30T00:23:41;6.80;85.20
78345;DHT22;67620;51.134;6.548;2024-01-30T00:26:07;6.70;85.10
78345;DHT22;67620;51.134;6.548;2024-01-30T00:28:32;6.80;85.00
78345;DHT22;67620;51.134;6.548;2024-01-30T00:30:58;6.70;85.30
78345;DHT22;67620;51.134;6.548;2024-01-30T00:33:24;6.70;85.00
78345;DHT22;67620;51.134;6.548;2024-01-30T00:35:49;6.70;85.30
78345;DHT22;67620;51.134;6.548;2024-01-30T00:38:15;6.70;85.20
78345;DHT22;67620;51.134;6.548;2024-01-30T00:40:41;6.70;85.10
78345;DHT22;67620;51.134;6.548;2024-01-30T00:43:06;6.70;85.10
78345;DHT22;67620;51.134;6.548;2024-01-30T00:45:32;6.60;85.50
78345;DHT22;67620;51.134;6.548;2024-01-30T00:47:57;6.60;85.30
78345;DHT22;67620;51.134;6.548;2024-01-30T00:50:23;6.60;85.70
78345;DHT22;67620;51.134;6.548;2024-01-30T00:52:48;6.60;86.00
78345;DHT22;67620;51.134;6.548;2024-01-30T00:55:14;6.70;85.30
78345;DHT22;67620;51.134;6.548;2024-01-30T00:57:40;6.60;85.50
78345;DHT22;67620;51.134;6.548;2024-01-30T01:00:07;6.60;85.40
78345;DHT22;67620;51.134;6.548;2024-01-30T01:02:35;6.60;85.20
78345;DHT22;67620;51.134;6.548;2024-01-30T01:05:01;6.60;85.30
78345;DHT22;67620;51.134;6.548;2024-01-30T01:07:26;6.50;85.80
78345;DHT22;67620;51.134;6.548;2024-01-30T01:09:52;6.50;85.70
78345;DHT22;67620;51.134;6.548;2024-01-30T01:12:17;6.60;85.40
78345;DHT22;67620;51.134;6.548;2024-01-30T01:14:43;6.60;85.00
78345;DHT22;67620;51.134;6.548;2024-01-30T01:17:08;6.60;85.00
78345;DHT22;67620;51.134;6.548;2024-01-30T01:19:34;6.60;85.10
78345;DHT22;67620;51.134;6.548;2024-01-30T01:22:00;6.50;85.70
78345;DHT22;67620;51.134;6.548;2024-01-30T01:24:25;6.50;85.30
78345;DHT22;67620;51.134;6.548;2024-01-30T01:26:51;6.50;85.80
78345;DHT22;67620;51.134;6.548;2024-01-30T01:29:16;6.50;85.50
78345;DHT22;67620;51.134;6.548;2024-01-30T01:31:42;6.50;85.60
78345;DHT22;67620;51.134;6.548;2024-01-30T01:34:12;6.40;85.80
78345;DHT22;67620;51.134;6.548;2024-01-30T01:36:39;6.50;85.70
78345;DHT22;67620;51.134;6.548;2024-01-30T01:39:05;6.40;85.80
78345;DHT22;67620;51.134;6.548;2024-01-30T01:41:31;6.50;85.60
78345;DHT22;67620;51.134;6.548;2024-01-30T01:43:57;6.40;85.80
78345;DHT22;67620;51.134;6.548;2024-01-30T01:46:23;6.40;86.00
78345;DHT22;67620;51.134;6.548;2024-01-30T01:48:49;6.40;86.00
78345;DHT22;67620;51.134;6.548;2024-01-30T01:51:15;6.40;85.90
78345;DHT22;67620;51.134;6.548;2024-01-30T01:53:41;6.50;85.50
78345;DHT22;67620;51.134;6.548;2024-01-30T01:56:07;6.50;85.00
78345;DHT22;67620;51.134;6.548;2024-01-30T01:58:32;6.50;84.90
78345;DHT22;67620;51.134;6.548;2024-01-30T02:00:59;6.50;85.30
78345;DHT22;67620;51.134;6.548;2024-01-30T02:03:24;6.50;85.60
78345;DHT22;67620;51.134;6.548;2024-01-30T02:05:53;6.50;85.50
78345;DHT22;67620;51.134;6.548;2024-01-30T02:08:20;6.50;85.50
78345;DHT22;67620;51.134;6.548;2024-01-30T02:10:45;6.50;85.30
78345;DHT22;67620;51.134;6.548;2024-01-30T02:13:11;6.50;85.30
78345;DHT22;67620;51.134;6.548;2024-01-30T02:15:36;6.50;85.50
78345;DHT22;67620;51.134;6.548;2024-01-30T02:18:02;6.50;85.40
78345;DHT22;67620;51.134;6.548;2024-01-30T02:20:30;6.50;85.30
78345;DHT22;67620;51.134;6.548;2024-01-30T02:22:58;6.50;85.40
78345;DHT22;67620;51.134;6.548;2024-01-30T02:25:32;6.40;85.60
78345;DHT22;67620;51.134;6.548;2024-01-30T02:27:58;6.50;85.50
78345;DHT22;67620;51.134;6.548;2024-01-30T02:30:23;6.50;85.40
78345;DHT22;67620;51.134;6.548;2024-01-30T02:32:49;6.50;85.40
78345;DHT22;67620;51.134;6.548;2024-01-30T02:35:14;6.60;85.40
78345;DHT22;67620;51.134;6.548;2024-01-30T02:37:39;6.60;85.50
78345;DHT22;67620;51.134;6.548;2024-01-30T02:40:06;6.60;85.40
78345;DHT22;67620;51.134;6.548;2024-01-30T02:42:31;6.60;85.40
78345;DHT22;67620;51.134;6.548;2024-01-30T02:44:57;6.50;85.40
78345;DHT22;67620;51.134;6.548;2024-01-30T02:47:22;6.50;85.50
78345;DHT22;67620;51.134;6.548;2024-01-30T02:49:48;6.50;85.70
78345;DHT22;67620;51.134;6.548;2024-01-30T02:52:13;6.50;85.80
78345;DHT22;67620;51.134;6.548;2024-01-30T02:54:39;6.50;85.60
78345;DHT22;67620;51.134;6.548;2024-01-30T02:57:04;6.50;85.50
78345;DHT22;67620;51.134;6.548;2024-01-30T02:59:30;6.50;85.50
78345;DHT22;67620;51.134;6.548;2024-01-30T03:01:58;6.50;85.60
78345;DHT22;67620;51.134;6.548;2024-01-30T03:04:24;6.50;85.60
78345;DHT22;67620;51.134;6.548;2024-01-30T03:06:50;6.60;85.20
78345;DHT22;67620;51.134;6.548;2024-01-30T03:09:18;6.60;85.10
78345;DHT22;67620;51.134;6.548;2024-01-30T03:11:43;6.60;85.40
78345;DHT22;67620;51.134;6.548;2024-01-30T03:14:09;6.60;85.50
78345;DHT22;67620;51.134;6.548;2024-01-30T03:16:37;6.50;85.60
78345;DHT22;67620;51.134;6.548;2024-01-30T03:19:03;6.60;85.60
78345;DHT22;67620;51.134;6.548;2024-01-30T03:21:29;6.50;85.50
78345;DHT22;67620;51.134;6.548;2024-01-30T03:23:54;6.50;85.70
78345;DHT22;67620;51.134;6.548;2024-01-30T03:26:20;6.50;85.60
78345;DHT22;67620;51.134;6.548;2024-01-30T03:28:45;6.50;85.30
78345;DHT22;67620;51.134;6.548;2024-01-30T03:31:13;6.50;85.50
78345;DHT22;67620;51.134;6.548;2024-01-30T03:33:39;6.40;85.70
78345;DHT22;67620;51.134;6.548;2024-01-30T03:36:05;6.50;85.60
78345;DHT22;67620;51.134;6.548;2024-01-30T03:38:31;6.50;85.60
78345;DHT22;67620;51.134;6.548;2024-01-30T03:40:58;6.50;85.40
78345;DHT22;67620;51.134;6.548;2024-01-30T03:43:24;6.50;85.40
78345;DHT22;67620;51.134;6.548;2024-01-30T03:45:49;6.50;85.60
78345;DHT22;67620;51.134;6.548;2024-01-30T03:48:15;6.50;85.30
78345;DHT22;67620;51.134;6.548;2024-01-30T03:50:40;6.50;85.40
78345;DHT22;67620;51.134;6.548;2024-01-30T03:53:06;6.40;85.60
78345;DHT22;67620;51.134;6.548;2024-01-30T03:55:31;6.40;85.40
78345;DHT22;67620;51.134;6.548;2024-01-30T03:57:57;6.40;85.30
78345;DHT22;67620;51.134;6.548;2024-01-30T04:00:23;6.40;85.20
78345;DHT22;67620;51.134;6.548;2024-01-30T04:02:48;6.40;85.30
78345;DHT22;67620;51.134;6.548;2024-01-30T04:05:16;6.30;85.80
78345;DHT22;67620;51.134;6.548;2024-01-30T04:07:42;6.30;85.60
78345;DHT22;67620;51.134;6.548;2024-01-30T04:10:09;6.30;85.70
78345;DHT22;67620;51.134;6.548;2024-01-30T04:12:35;6.30;85.60
78345;DHT22;67620;51.134;6.548;2024-01-30T04:15:01;6.30;85.70
78345;DHT22;67620;51.134;6.548;2024-01-30T04:17:26;6.20;86.70
78345;DHT22;67620;51.134;6.548;2024-01-30T04:19:54;6.20;86.70
78345;DHT22;67620;51.134;6.548;2024-01-30T04:22:19;6.20;86.40
78345;DHT22;67620;51.134;6.548;2024-01-30T04:24:45;6.20;86.40
78345;DHT22;67620;51.134;6.548;2024-01-30T04:27:11;6.20;86.10
78345;DHT22;67620;51.134;6.548;2024-01-30T04:29:36;6.20;86.10
78345;DHT22;67620;51.134;6.548;2024-01-30T04:32:02;6.20;86.10
78345;DHT22;67620;51.134;6.548;2024-01-30T04:34:27;6.20;86.40
78345;DHT22;67620;51.134;6.548;2024-01-30T04:36:53;6.20;86.30
78345;DHT22;67620;51.134;6.548;2024-01-30T04:39:18;6.20;86.20
78345;DHT22;67620;51.134;6.548;2024-01-30T04:41:44;6.20;86.10
78345;DHT22;67620;51.134;6.548;2024-01-30T04:44:09;6.20;86.10
78345;DHT22;67620;51.134;6.548;2024-01-30T04:46:35;6.20;86.20
78345;DHT22;67620;51.134;6.548;2024-01-30T04:49:00;6.20;86.00
78345;DHT22;67620;51.134;6.548;2024-01-30T04:51:26;6.30;85.70
78345;DHT22;67620;51.134;6.548;2024-01-30T04:53:51;6.20;86.10
78345;DHT22;67620;51.134;6.548;2024-01-30T04:56:16;6.20;86.30
78345;DHT22;67620;51.134;6.548;2024-01-30T04:58:42;6.20;86.20
78345;DHT22;67620;51.134;6.548;2024-01-30T05:01:07;6.10;86.50
78345;DHT22;67620;51.134;6.548;2024-01-30T05:03:34;6.10;86.50
78345;DHT22;67620;51.134;6.548;2024-01-30T05:06:00;6.10;86.20
78345;DHT22;67620;51.134;6.548;2024-01-30T05:08:25;6.20;86.20
78345;DHT22;67620;51.134;6.548;2024-01-30T05:10:51;6.10;86.20
78345;DHT22;67620;51.134;6.548;2024-01-30T05:13:16;6.20;86.00
78345;DHT22;67620;51.134;6.548;2024-01-30T05:15:42;6.10;86.50
78345;DHT22;67620;51.134;6.548;2024-01-30T05:18:08;6.10;86.30
78345;DHT22;67620;51.134;6.548;2024-01-30T05:20:33;6.10;86.20
78345;DHT22;67620;51.134;6.548;2024-01-30T05:22:58;6.10;86.00
78345;DHT22;67620;51.134;6.548;2024-01-30T05:25:24;6.00;86.20
78345;DHT22;67620;51.134;6.548;2024-01-30T05:27:50;5.90;86.60
78345;DHT22;67620;51.134;6.548;2024-01-30T05:30:15;5.90;86.60
78345;DHT22;67620;51.134;6.548;2024-01-30T05:32:41;6.00;86.40
78345;DHT22;67620;51.134;6.548;2024-01-30T05:35:06;5.90;86.60
78345;DHT22;67620;51.134;6.548;2024-01-30T05:37:33;5.90;86.60
78345;DHT22;67620;51.134;6.548;2024-01-30T05:39:59;5.90;86.40
78345;DHT22;67620;51.134;6.548;2024-01-30T05:42:24;5.90;86.20
78345;DHT22;67620;51.134;6.548;2024-01-30T05:44:50;5.90;86.60
78345;DHT22;67620;51.134;6.548;2024-01-30T05:47:16;5.90;86.60
78345;DHT22;67620;51.134;6.548;2024-01-30T05:49:41;5.90;86.30
78345;DHT22;67620;51.134;6.548;2024-01-30T05:52:07;5.90;86.50
78345;DHT22;67620;51.134;6.548;2024-01-30T05:54:32;5.90;86.50
78345;DHT22;67620;51.134;6.548;2024-01-30T05:56:59;5.90;86.70
78345;DHT22;67620;51.134;6.548;2024-01-30T05:59:24;5.90;86.60
78345;DHT22;67620;51.134;6.548;2024-01-30T06:01:50;5.90;86.40
78345;DHT22;67620;51.134;6.548;2024-01-30T06:04:15;5.90;86.40
78345;DHT22;67620;51.134;6.548;2024-01-30T06:06:41;5.90;86.60
78345;DHT22;67620;51.134;6.548;2024-01-30T06:09:07;5.80;86.90
78345;DHT22;67620;51.134;6.548;2024-01-30T06:11:35;5.90;86.90
78345;DHT22;67620;51.134;6.548;2024-01-30T06:14:01;6.00;86.60
78345;DHT22;67620;51.134;6.548;2024-01-30T06:16:26;6.00;87.00
78345;DHT22;67620;51.134;6.548;2024-01-30T06:18:55;6.00;86.80
78345;DHT22;67620;51.134;6.548;2024-01-30T06:21:21;6.00;87.00
78345;DHT22;67620;51.134;6.548;2024-01-30T06:23:47;6.00;87.00
78345;DHT22;67620;51.134;6.548;2024-01-30T06:26:12;6.00;87.20
78345;DHT22;67620;51.134;6.548;2024-01-30T06:28:38;6.10;87.30
78345;DHT22;67620;51.134;6.548;2024-01-30T06:31:03;6.00;87.20
78345;DHT22;67620;51.134;6.548;2024-01-30T06:33:29;6.10;87.00
78345;DHT22;67620;51.134;6.548;2024-01-30T06:35:54;6.10;86.80
78345;DHT22;67620;51.134;6.548;2024-01-30T06:38:20;6.10;86.70
78345;DHT22;67620;51.134;6.548;2024-01-30T06:40:45;6.10;86.70
78345;DHT22;67620;51.134;6.548;2024-01-30T06:43:11;6.10;86.70
78345;DHT22;67620;51.134;6.548;2024-01-30T06:45:37;6.10;86.60
78345;DHT22;67620;51.134;6.548;2024-01-30T06:48:03;6.10;86.70
78345;DHT22;67620;51.134;6.548;2024-01-30T06:50:28;6.10;87.00
78345;DHT22;67620;51.134;6.548;2024-01-30T06:52:54;6.10;86.90
78345;DHT22;67620;51.134;6.548;2024-01-30T06:55:19;6.00;87.20
78345;DHT22;67620;51.134;6.548;2024-01-30T06:57:45;6.00;87.10
78345;DHT22;67620;51.134;6.548;2024-01-30T07:00:11;6.10;86.80
78345;DHT22;67620;51.134;6.548;2024-01-30T07:02:36;6.00;86.80
78345;DHT22;67620;51.134;6.548;2024-01-30T07:05:02;6.10;86.60
78345;DHT22;67620;51.134;6.548;2024-01-30T07:07:28;6.10;86.80
78345;DHT22;67620;51.134;6.548;2024-01-30T07:09:54;6.10;87.00
78345;DHT22;67620;51.134;6.548;2024-01-30T07:12:22;6.10;87.30
78345;DHT22;67620;51.134;6.548;2024-01-30T07:14:48;6.10;87.20
78345;DHT22;67620;51.134;6.548;2024-01-30T07:17:13;6.10;86.80
78345;DHT22;67620;51.134;6.548;2024-01-30T07:19:39;6.20;86.60
78345;DHT22;67620;51.134;6.548;2024-01-30T07:22:05;6.10;87.00
78345;DHT22;67620;51.134;6.548;2024-01-30T07:24:30;6.10;87.40
78345;DHT22;67620;51.134;6.548;2024-01-30T07:26:56;6.10;87.50
78345;DHT22;67620;51.134;6.548;2024-01-30T07:29:22;6.10;87.40
78345;DHT22;67620;51.134;6.548;2024-01-30T07:31:47;6.10;87.50
78345;DHT22;67620;51.134;6.548;2024-01-30T07:34:13;6.10;87.50
78345;DHT22;67620;51.134;6.548;2024-01-30T07:36:39;6.20;87.50
78345;DHT22;67620;51.134;6.548;2024-01-30T07:39:04;6.20;87.20
78345;DHT22;67620;51.134;6.548;2024-01-30T07:41:30;6.20;87.10
78345;DHT22;67620;51.134;6.548;2024-01-30T07:43:55;6.30;87.20
78345;DHT22;67620;51.134;6.548;2024-01-30T07:46:21;6.20;87.40
78345;DHT22;67620;51.134;6.548;2024-01-30T07:48:46;6.20;87.20
78345;DHT22;67620;51.134;6.548;2024-01-30T07:51:12;6.20;87.20
78345;DHT22;67620;51.134;6.548;2024-01-30T07:53:37;6.20;87.60
78345;DHT22;67620;51.134;6.548;2024-01-30T07:56:03;6.30;87.10
78345;DHT22;67620;51.134;6.548;2024-01-30T07:58:29;6.30;87.00
78345;DHT22;67620;51.134;6.548;2024-01-30T08:00:54;6.30;87.50
78345;DHT22;67620;51.134;6.548;2024-01-30T08:03:22;6.30;87.40
78345;DHT22;67620;51.134;6.548;2024-01-30T08:05:47;6.30;87.20
78345;DHT22;67620;51.134;6.548;2024-01-30T08:08:13;6.30;87.30
78345;DHT22;67620;51.134;6.548;2024-01-30T08:10:38;6.40;87.00
78345;DHT22;67620;51.134;6.548;2024-01-30T08:13:04;6.40;87.00
78345;DHT22;67620;51.134;6.548;2024-01-30T08:15:29;6.50;86.60
78345;DHT22;67620;51.134;6.548;2024-01-30T08:17:55;6.50;86.60
78345;DHT22;67620;51.134;6.548;2024-01-30T08:20:24;6.50;86.70
78345;DHT22;67620;51.134;6.548;2024-01-30T08:22:49;6.60;86.90
78345;DHT22;67620;51.134;6.548;2024-01-30T08:25:15;6.60;86.70
78345;DHT22;67620;51.134;6.548;2024-01-30T08:27:40;6.60;86.50
78345;DHT22;67620;51.134;6.548;2024-01-30T08:30:06;6.70;86.50
78345;DHT22;67620;51.134;6.548;2024-01-30T08:32:32;6.70;86.80
78345;DHT22;67620;51.134;6.548;2024-01-30T08:34:58;6.70;86.60
78345;DHT22;67620;51.134;6.548;2024-01-30T08:37:23;6.80;86.40
78345;DHT22;67620;51.134;6.548;2024-01-30T08:39:49;6.90;86.30
78345;DHT22;67620;51.134;6.548;2024-01-30T08:42:14;6.90;85.90
78345;DHT22;67620;51.134;6.548;2024-01-30T08:44:40;7.00;85.70
78345;DHT22;67620;51.134;6.548;2024-01-30T08:47:05;7.00;85.70
78345;DHT22;67620;51.134;6.548;2024-01-30T08:49:31;7.00;85.70
78345;DHT22;67620;51.134;6.548;2024-01-30T08:51:57;6.90;85.90
78345;DHT22;67620;51.134;6.548;2024-01-30T08:54:23;7.00;85.60
78345;DHT22;67620;51.134;6.548;2024-01-30T08:56:49;7.00;85.60
78345;DHT22;67620;51.134;6.548;2024-01-30T08:59:14;7.00;85.20
78345;DHT22;67620;51.134;6.548;2024-01-30T09:01:40;7.00;85.60
78345;DHT22;67620;51.134;6.548;2024-01-30T09:04:05;7.00;85.80
78345;DHT22;67620;51.134;6.548;2024-01-30T09:06:31;7.10;85.70
78345;DHT22;67620;51.134;6.548;2024-01-30T09:08:57;7.10;85.50
78345;DHT22;67620;51.134;6.548;2024-01-30T09:11:23;7.10;85.70
78345;DHT22;67620;51.134;6.548;2024-01-30T09:13:48;7.10;85.50
78345;DHT22;67620;51.134;6.548;2024-01-30T09:16:14;7.10;85.60
78345;DHT22;67620;51.134;6.548;2024-01-30T09:18:41;7.20;85.20
78345;DHT22;67620;51.134;6.548;2024-01-30T09:21:07;7.20;85.50
78345;DHT22;67620;51.134;6.548;2024-01-30T09:23:32;7.20;85.50
78345;DHT22;67620;51.134;6.548;2024-01-30T09:25:58;7.30;85.60
78345;DHT22;67620;51.134;6.548;2024-01-30T09:28:24;7.20;86.60
78345;DHT22;67620;51.134;6.548;2024-01-30T09:30:50;7.20;85.60
78345;DHT22;67620;51.134;6.548;2024-01-30T09:33:15;7.20;85.60
78345;DHT22;67620;51.134;6.548;2024-01-30T09:35:41;7.30;86.20
78345;DHT22;67620;51.134;6.548;2024-01-30T09:38:06;7.30;85.80
78345;DHT22;67620;51.134;6.548;2024-01-30T09:40:32;7.30;86.80
78345;DHT22;67620;51.134;6.548;2024-01-30T09:42:58;7.40;86.20
78345;DHT22;67620;51.134;6.548;2024-01-30T09:45:25;7.40;86.30
78345;DHT22;67620;51.134;6.548;2024-01-30T09:47:52;7.40;86.90
78345;DHT22;67620;51.134;6.548;2024-01-30T09:50:19;7.30;87.20
78345;DHT22;67620;51.134;6.548;2024-01-30T09:52:46;7.30;86.90
78345;DHT22;67620;51.134;6.548;2024-01-30T09:55:11;7.40;86.90
78345;DHT22;67620;51.134;6.548;2024-01-30T09:57:37;7.40;86.90
78345;DHT22;67620;51.134;6.548;2024-01-30T10:00:03;7.50;86.50
78345;DHT22;67620;51.134;6.548;2024-01-30T10:02:31;7.50;86.40
78345;DHT22;67620;51.134;6.548;2024-01-30T10:04:57;7.60;86.30
78345;DHT22;67620;51.134;6.548;2024-01-30T10:07:22;7.60;86.10
78345;DHT22;67620;51.134;6.548;2024-01-30T10:09:49;7.70;86.40
78345;DHT22;67620;51.134;6.548;2024-01-30T10:12:15;7.80;86.00
78345;DHT22;67620;51.134;6.548;2024-01-30T10:14:42;7.80;86.30
78345;DHT22;67620;51.134;6.548;2024-01-30T10:17:09;7.80;86.30
78345;DHT22;67620;51.134;6.548;2024-01-30T10:19:36;7.80;85.60
78345;DHT22;67620;51.134;6.548;2024-01-30T10:22:02;7.90;86.10
78345;DHT22;67620;51.134;6.548;2024-01-30T10:24:28;7.90;85.60
78345;DHT22;67620;51.134;6.548;2024-01-30T10:26:55;8.00;86.20
78345;DHT22;67620;51.134;6.548;2024-01-30T10:29:20;8.00;85.80
78345;DHT22;67620;51.134;6.548;2024-01-30T10:31:46;8.10;86.20
78345;DHT22;67620;51.134;6.548;2024-01-30T10:34:12;8.20;87.10
78345;DHT22;67620;51.134;6.548;2024-01-30T10:36:43;8.30;86.00
78345;DHT22;67620;51.134;6.548;2024-01-30T10:39:12;8.30;86.10
78345;DHT22;67620;51.134;6.548;2024-01-30T10:41:44;8.40;85.50
78345;DHT22;67620;51.134;6.548;2024-01-30T10:44:10;8.40;85.40
78345;DHT22;67620;51.134;6.548;2024-01-30T10:46:37;8.40;85.50
78345;DHT22;67620;51.134;6.548;2024-01-30T10:49:04;8.40;85.40
78345;DHT22;67620;51.134;6.548;2024-01-30T10:51:31;8.40;85.90
78345;DHT22;67620;51.134;6.548;2024-01-30T10:53:57;8.50;85.90
78345;DHT22;67620;51.134;6.548;2024-01-30T10:56:24;8.50;85.90
78345;DHT22;67620;51.134;6.548;2024-01-30T10:58:51;8.50;85.90
78345;DHT22;67620;51.134;6.548;2024-01-30T11:01:21;8.60;86.00
78345;DHT22;67620;51.134;6.548;2024-01-30T11:03:52;8.60;86.30
78345;DHT22;67620;51.134;6.548;2024-01-30T11:06:18;8.60;86.10
78345;DHT22;67620;51.134;6.548;2024-01-30T11:08:46;8.70;86.50
78345;DHT22;67620;51.134;6.548;2024-01-30T11:11:12;8.80;85.60
78345;DHT22;67620;51.134;6.548;2024-01-30T11:13:37;8.90;85.50
78345;DHT22;67620;51.134;6.548;2024-01-30T11:16:04;8.90;84.90
78345;DHT22;67620;51.134;6.548;2024-01-30T11:18:31;8.90;84.70
78345;DHT22;67620;51.134;6.548;2024-01-30T11:21:00;9.00;85.30
78345;DHT22;67620;51.134;6.548;2024-01-30T11:23:28;9.20;86.10
78345;DHT22;67620;51.134;6.548;2024-01-30T11:25:54;9.40;86.30
78345;DHT22;67620;51.134;6.548;2024-01-30T11:28:21;9.70;85.20
78345;DHT22;67620;51.134;6.548;2024-01-30T11:30:47;9.80;84.90
78345;DHT22;67620;51.134;6.548;2024-01-30T11:33:14;9.70;85.20
78345;DHT22;67620;51.134;6.548;2024-01-30T11:35:44;9.80;85.30
78345;DHT22;67620;51.134;6.548;2024-01-30T11:38:11;9.90;85.00
78345;DHT22;67620;51.134;6.548;2024-01-30T11:40:40;10.00;84.70
78345;DHT22;67620;51.134;6.548;2024-01-30T11:43:07;10.00;84.40
78345;DHT22;67620;51.134;6.548;2024-01-30T11:45:34;10.00;84.50
78345;DHT22;67620;51.134;6.548;2024-01-30T11:48:00;10.20;84.40
78345;DHT22;67620;51.134;6.548;2024-01-30T11:50:26;10.30;84.30
78345;DHT22;67620;51.134;6.548;2024-01-30T11:52:54;10.20;84.40
78345;DHT22;67620;51.134;6.548;2024-01-30T11:55:19;10.30;84.30
78345;DHT22;67620;51.134;6.548;2024-01-30T11:57:45;10.30;84.50
78345;DHT22;67620;51.134;6.548;2024-01-30T12:00:15;10.40;84.10
78345;DHT22;67620;51.134;6.548;2024-01-30T12:02:41;10.30;84.80
78345;DHT22;67620;51.134;6.548;2024-01-30T12:05:07;10.40;84.60
78345;DHT22;67620;51.134;6.548;2024-01-30T12:07:33;10.40;84.60
78345;DHT22;67620;51.134;6.548;2024-01-30T12:09:59;10.40;84.20
78345;DHT22;67620;51.134;6.548;2024-01-30T12:12:26;10.40;84.40
78345;DHT22;67620;51.134;6.548;2024-01-30T12:14:51;10.50;84.10
78345;DHT22;67620;51.134;6.548;2024-01-30T12:17:30;10.50;84.00
78345;DHT22;67620;51.134;6.548;2024-01-30T12:20:17;10.50;83.90
78345;DHT22;67620;51.134;6.548;2024-01-30T12:22:44;10.50;83.40
78345;DHT22;67620;51.134;6.548;2024-01-30T12:25:14;10.60;83.30
78345;DHT22;67620;51.134;6.548;2024-01-30T12:27:43;10.60;83.30
78345;DHT22;67620;51.134;6.548;2024-01-30T12:30:10;10.60;83.30
78345;DHT22;67620;51.134;6.548;2024-01-30T12:32:37;10.70;83.20
78345;DHT22;67620;51.134;6.548;2024-01-30T12:35:02;10.70;83.10
78345;DHT22;67620;51.134;6.548;2024-01-30T12:37:29;10.70;83.10
78345;DHT22;67620;51.134;6.548;2024-01-30T12:39:55;10.70;83.20
78345;DHT22;67620;51.134;6.548;2024-01-30T12:42:21;10.70;83.50
78345;DHT22;67620;51.134;6.548;2024-01-30T12:44:48;10.60;83.50
78345;DHT22;67620;51.134;6.548;2024-01-30T12:47:14;10.70;83.60
78345;DHT22;67620;51.134;6.548;2024-01-30T12:49:42;10.70;83.30
78345;DHT22;67620;51.134;6.548;2024-01-30T12:52:08;10.70;83.10
78345;DHT22;67620;51.134;6.548;2024-01-30T12:54:34;10.70;83.20
78345;DHT22;67620;51.134;6.548;2024-01-30T12:56:59;10.70;83.40
78345;DHT22;67620;51.134;6.548;2024-01-30T12:59:25;10.70;83.50
78345;DHT22;67620;51.134;6.548;2024-01-30T13:01:50;10.70;83.30
78345;DHT22;67620;51.134;6.548;2024-01-30T13:04:16;10.70;83.20
78345;DHT22;67620;51.134;6.548;2024-01-30T13:06:42;10.60;83.60
78345;DHT22;67620;51.134;6.548;2024-01-30T13:09:07;10.70;83.00
78345;DHT22;67620;51.134;6.548;2024-01-30T13:11:33;10.60;83.50
78345;DHT22;67620;51.134;6.548;2024-01-30T13:13:59;10.70;83.60
78345;DHT22;67620;51.134;6.548;2024-01-30T13:16:25;10.60;83.60
78345;DHT22;67620;51.134;6.548;2024-01-30T13:18:51;10.70;83.10
78345;DHT22;67620;51.134;6.548;2024-01-30T13:21:16;10.70;83.20
78345;DHT22;67620;51.134;6.548;2024-01-30T13:23:42;10.70;83.40
78345;DHT22;67620;51.134;6.548;2024-01-30T13:26:08;10.70;83.40
78345;DHT22;67620;51.134;6.548;2024-01-30T13:28:34;10.70;83.40
78345;DHT22;67620;51.134;6.548;2024-01-30T13:30:59;10.70;83.00
78345;DHT22;67620;51.134;6.548;2024-01-30T13:33:26;10.70;83.20
78345;DHT22;67620;51.134;6.548;2024-01-30T13:35:51;10.70;83.20
78345;DHT22;67620;51.134;6.548;2024-01-30T13:38:17;10.70;83.40
78345;DHT22;67620;51.134;6.548;2024-01-30T13:40:42;10.70;83.10
78345;DHT22;67620;51.134;6.548;2024-01-30T13:43:08;10.80;83.10
78345;DHT22;67620;51.134;6.548;2024-01-30T13:45:33;10.80;82.70
78345;DHT22;67620;51.134;6.548;2024-01-30T13:47:59;10.90;82.50
78345;DHT22;67620;51.134;6.548;2024-01-30T13:50:24;10.90;82.80
78345;DHT22;67620;51.134;6.548;2024-01-30T13:52:50;11.00;82.60
78345;DHT22;67620;51.134;6.548;2024-01-30T13:55:15;11.00;82.70
78345;DHT22;67620;51.134;6.548;2024-01-30T13:57:41;10.90;82.60
78345;DHT22;67620;51.134;6.548;2024-01-30T14:00:07;11.00;82.90
78345;DHT22;67620;51.134;6.548;2024-01-30T14:02:33;10.90;82.80
78345;DHT22;67620;51.134;6.548;2024-01-30T14:04:58;10.90;82.60
78345;DHT22;67620;51.134;6.548;2024-01-30T14:07:24;10.90;82.90
78345;DHT22;67620;51.134;6.548;2024-01-30T14:09:50;10.90;83.20
78345;DHT22;67620;51.134;6.548;2024-01-30T14:12:15;11.00;82.30
78345;DHT22;67620;51.134;6.548;2024-01-30T14:14:41;11.00;81.90
78345;DHT22;67620;51.134;6.548;2024-01-30T14:17:07;11.10;81.80
78345;DHT22;67620;51.134;6.548;2024-01-30T14:19:34;11.10;81.60
78345;DHT22;67620;51.134;6.548;2024-01-30T14:21:59;11.10;81.50
78345;DHT22;67620;51.134;6.548;2024-01-30T14:24:25;11.00;81.10
78345;DHT22;67620;51.134;6.548;2024-01-30T14:26:50;11.10;81.60
78345;DHT22;67620;51.134;6.548;2024-01-30T14:29:16;11.00;81.40
78345;DHT22;67620;51.134;6.548;2024-01-30T14:31:42;11.00;81.10
78345;DHT22;67620;51.134;6.548;2024-01-30T14:34:07;10.90;80.60
78345;DHT22;67620;51.134;6.548;2024-01-30T14:36:34;10.90;80.90
78345;DHT22;67620;51.134;6.548;2024-01-30T14:38:59;10.90;81.20
78345;DHT22;67620;51.134;6.548;2024-01-30T14:41:25;10.90;79.70
78345;DHT22;67620;51.134;6.548;2024-01-30T14:43:50;10.90;80.60
78345;DHT22;67620;51.134;6.548;2024-01-30T14:46:16;10.90;80.60
78345;DHT22;67620;51.134;6.548;2024-01-30T14:48:41;10.90;80.10
78345;DHT22;67620;51.134;6.548;2024-01-30T14:51:08;10.80;80.50
78345;DHT22;67620;51.134;6.548;2024-01-30T14:53:34;10.80;80.70
78345;DHT22;67620;51.134;6.548;2024-01-30T14:55:59;10.80;81.00
78345;DHT22;67620;51.134;6.548;2024-01-30T14:58:25;10.70;80.00
78345;DHT22;67620;51.134;6.548;2024-01-30T15:00:50;10.70;80.10
78345;DHT22;67620;51.134;6.548;2024-01-30T15:03:16;10.60;77.50
78345;DHT22;67620;51.134;6.548;2024-01-30T15:05:42;10.60;76.10
78345;DHT22;67620;51.134;6.548;2024-01-30T15:08:07;10.50;76.40
78345;DHT22;67620;51.134;6.548;2024-01-30T15:10:33;10.50;75.90
78345;DHT22;67620;51.134;6.548;2024-01-30T15:12:58;10.50;76.40
78345;DHT22;67620;51.134;6.548;2024-01-30T15:15:24;10.40;76.80
78345;DHT22;67620;51.134;6.548;2024-01-30T15:17:49;10.40;76.70
78345;DHT22;67620;51.134;6.548;2024-01-30T15:20:15;10.40;76.80
78345;DHT22;67620;51.134;6.548;2024-01-30T15:22:43;10.30;77.30
78345;DHT22;67620;51.134;6.548;2024-01-30T15:25:10;10.30;76.30
78345;DHT22;67620;51.134;6.548;2024-01-30T15:27:36;10.20;76.20
78345;DHT22;67620;51.134;6.548;2024-01-30T15:30:02;10.30;76.60
78345;DHT22;67620;51.134;6.548;2024-01-30T15:32:27;10.20;77.20
78345;DHT22;67620;51.134;6.548;2024-01-30T15:34:53;10.20;77.40